createdAt,value
2019-03-20T00:00:16.930Z,1.90
2019-03-20T00:02:45.313Z,1.67
2019-03-20T00:05:13.603Z,2.20
2019-03-20T00:07:42.018Z,1.75
2019-03-20T00:10:11.414Z,1.77
2019-03-20T00:12:39.858Z,1.63
2019-03-20T00:15:14.199Z,1.90
2019-03-20T00:17:42.627Z,1.70
2019-03-20T00:20:11.938Z,1.85
2019-03-20T00:22:42.863Z,1.50
2019-03-20T00:25:10.858Z,1.80
2019-03-20T00:27:40.134Z,1.55
2019-03-20T00:30:11.687Z,1.52
2019-03-20T00:32:40.138Z,1.80
2019-03-20T00:35:08.512Z,1.70
2019-03-20T00:37:37.084Z,1.82
2019-03-20T00:40:12.633Z,1.50
2019-03-20T00:42:40.939Z,1.43
2019-03-20T00:45:14.303Z,1.47
2019-03-20T00:47:42.677Z,1.50
2019-03-20T00:50:15.759Z,1.65
2019-03-20T00:52:44.153Z,2.27
2019-03-20T00:55:21.747Z,1.50
2019-03-20T00:57:50.123Z,1.83
2019-03-20T01:00:27.412Z,1.60
2019-03-20T01:02:55.800Z,2.12
2019-03-20T01:05:24.180Z,2.37
2019-03-20T01:07:52.576Z,2.45
2019-03-20T01:10:24.527Z,2.12
2019-03-20T01:12:52.900Z,2.37
2019-03-20T01:15:21.314Z,2.08
2019-03-20T01:17:49.710Z,1.90
2019-03-20T01:20:21.712Z,1.57
2019-03-20T01:22:50.142Z,1.50
2019-03-20T01:25:18.569Z,2.25
2019-03-20T01:27:46.878Z,1.80
2019-03-20T01:30:37.472Z,1.62
2019-03-20T01:33:07.430Z,2.20
2019-03-20T01:35:35.922Z,2.00
2019-03-20T01:38:04.592Z,2.30
2019-03-20T01:40:33.013Z,2.12
2019-03-20T01:43:01.523Z,1.87
2019-03-20T01:45:29.907Z,2.45
2019-03-20T01:47:58.290Z,2.35
2019-03-20T01:50:26.669Z,2.17
2019-03-20T01:52:55.042Z,2.03
2019-03-20T01:55:23.533Z,2.55
2019-03-20T01:57:51.871Z,1.98
2019-03-20T02:00:20.350Z,2.40
2019-03-20T02:02:48.790Z,1.77
2019-03-20T02:05:17.243Z,2.00
2019-03-20T02:07:45.661Z,2.12
2019-03-20T02:10:16.012Z,2.63
2019-03-20T02:12:44.438Z,1.67
2019-03-20T02:15:14.660Z,2.30
2019-03-20T02:17:43.034Z,2.58
2019-03-20T02:20:20.696Z,2.25
2019-03-20T02:22:49.108Z,2.40
2019-03-20T02:25:17.613Z,2.33
2019-03-20T02:27:46.011Z,1.93
2019-03-20T02:30:16.187Z,1.80
2019-03-20T02:32:44.573Z,2.30
2019-03-20T02:35:12.974Z,2.27
2019-03-20T02:37:42.050Z,2.35
2019-03-20T02:40:14.754Z,1.87
2019-03-20T02:42:43.189Z,1.80
2019-03-20T02:45:13.432Z,2.27
2019-03-20T02:47:41.824Z,2.15
2019-03-20T02:50:11.159Z,2.17
2019-03-20T02:52:39.514Z,1.80
2019-03-20T02:55:11.197Z,2.00
2019-03-20T02:57:39.571Z,2.50
2019-03-20T03:00:13.711Z,1.82
2019-03-20T03:02:42.073Z,2.00
2019-03-20T03:05:10.659Z,2.50
2019-03-20T03:07:39.010Z,2.20
2019-03-20T03:10:15.156Z,2.98
2019-03-20T03:12:43.533Z,2.87
2019-03-20T03:15:12.843Z,1.15
2019-03-20T03:17:41.780Z,2.20
2019-03-20T03:20:13.928Z,2.45
2019-03-20T03:22:42.353Z,2.75
2019-03-20T03:25:11.752Z,2.05
2019-03-20T03:27:40.111Z,1.97
2019-03-20T03:30:11.789Z,2.35
2019-03-20T03:32:40.270Z,1.92
2019-03-20T03:35:08.656Z,1.92
2019-03-20T03:37:37.165Z,1.92
2019-03-20T03:40:11.406Z,2.40
2019-03-20T03:42:39.778Z,2.17
2019-03-20T03:45:12.527Z,1.82
2019-03-20T03:47:41.021Z,1.80
2019-03-20T03:50:10.110Z,2.22
2019-03-20T03:52:38.494Z,1.92
2019-03-20T03:55:08.499Z,2.50
2019-03-20T03:57:36.870Z,2.00
2019-03-20T04:00:08.786Z,2.16
2019-03-20T04:02:37.208Z,2.70
2019-03-20T04:05:05.855Z,3.10
2019-03-20T04:07:34.295Z,2.58
2019-03-20T04:10:02.812Z,2.52
2019-03-20T04:12:31.176Z,2.08
2019-03-20T04:14:59.550Z,2.62
2019-03-20T04:17:27.932Z,2.30
2019-03-20T04:19:56.350Z,2.45
2019-03-20T04:22:24.737Z,3.40
2019-03-20T04:24:53.134Z,3.72
2019-03-20T04:27:22.060Z,3.20
2019-03-20T04:29:50.418Z,3.22
2019-03-20T04:32:18.803Z,4.20
2019-03-20T04:34:47.175Z,3.15
2019-03-20T04:37:15.553Z,3.42
2019-03-20T04:39:44.024Z,3.33
2019-03-20T04:42:12.382Z,4.10
2019-03-20T04:44:40.949Z,3.52
2019-03-20T04:47:09.317Z,3.45
2019-03-20T04:49:37.711Z,4.05
2019-03-20T04:52:06.097Z,3.58
2019-03-20T04:54:34.471Z,3.85
2019-03-20T04:57:02.890Z,5.17
2019-03-20T04:59:31.346Z,4.83
2019-03-20T05:01:59.708Z,3.60
2019-03-20T05:04:28.086Z,4.08
2019-03-20T05:06:59.207Z,4.75
2019-03-20T05:09:26.609Z,4.47
2019-03-20T05:11:55.003Z,5.55
2019-03-20T05:14:23.466Z,4.20
2019-03-20T05:16:51.871Z,5.37
2019-03-20T05:19:20.276Z,5.00
2019-03-20T05:21:48.663Z,4.83
2019-03-20T05:24:17.177Z,4.92
2019-03-20T05:26:45.526Z,4.78
2019-03-20T05:29:13.930Z,5.35
2019-03-20T05:31:42.314Z,4.28
2019-03-20T05:34:10.771Z,4.92
2019-03-20T05:36:39.137Z,3.50
2019-03-20T05:39:07.535Z,5.22
2019-03-20T05:41:36.214Z,4.10
2019-03-20T05:44:04.608Z,3.80
2019-03-20T05:46:32.975Z,4.55
2019-03-20T05:49:01.359Z,4.15
2019-03-20T05:51:29.806Z,3.55
2019-03-20T05:53:58.282Z,5.00
2019-03-20T05:56:26.660Z,4.33
2019-03-20T05:58:55.154Z,3.92
2019-03-20T06:01:23.495Z,3.40
2019-03-20T06:03:51.895Z,5.30
2019-03-20T06:06:20.192Z,4.50
2019-03-20T06:08:48.617Z,4.30
2019-03-20T06:11:16.958Z,4.07
2019-03-20T06:13:45.344Z,4.50
2019-03-20T06:16:13.637Z,4.10
2019-03-20T06:18:42.101Z,3.95
2019-03-20T06:21:10.533Z,5.53
2019-03-20T06:23:39.007Z,4.47
2019-03-20T06:26:07.367Z,4.90
2019-03-20T06:28:35.747Z,5.90
2019-03-20T06:31:04.141Z,4.03
2019-03-20T06:33:32.510Z,4.10
2019-03-20T06:36:00.998Z,4.80
2019-03-20T06:38:29.940Z,4.85
2019-03-20T06:40:58.306Z,4.40
2019-03-20T06:43:26.698Z,5.00
2019-03-20T06:45:55.125Z,5.22
2019-03-20T06:48:23.502Z,4.03
2019-03-20T06:50:51.931Z,4.20
2019-03-20T06:53:20.298Z,7.22
2019-03-20T06:55:48.716Z,6.03
2019-03-20T06:58:17.148Z,5.85
2019-03-20T07:00:51.665Z,6.00
2019-03-20T07:03:29.116Z,5.60
2019-03-20T07:06:15.418Z,5.73
2019-03-20T07:08:58.931Z,6.17
2019-03-20T07:11:26.401Z,5.40
2019-03-20T07:13:54.873Z,6.95
2019-03-20T07:16:23.260Z,6.67
2019-03-20T07:18:51.637Z,7.60
2019-03-20T07:21:19.982Z,6.20
2019-03-20T07:23:48.355Z,6.37
2019-03-20T07:26:16.755Z,5.67
2019-03-20T07:28:45.125Z,5.27
2019-03-20T07:31:15.698Z,6.00
2019-03-20T07:33:43.538Z,6.65
2019-03-20T07:36:11.906Z,4.80
2019-03-20T07:38:40.273Z,4.80
2019-03-20T07:41:08.663Z,5.17
2019-03-20T07:43:37.058Z,5.12
2019-03-20T07:46:05.420Z,5.33
2019-03-20T07:48:33.841Z,4.20
2019-03-20T07:51:02.223Z,4.75
2019-03-20T07:53:30.584Z,3.50
2019-03-20T07:55:58.974Z,4.65
2019-03-20T07:58:27.434Z,4.33
2019-03-20T08:00:55.795Z,3.13
2019-03-20T08:03:24.273Z,3.35
2019-03-20T08:05:52.634Z,3.72
2019-03-20T08:08:21.033Z,4.03
2019-03-20T08:10:50.510Z,3.90
2019-03-20T08:13:18.909Z,3.50
2019-03-20T08:15:47.340Z,4.33
2019-03-20T08:18:15.705Z,3.27
2019-03-20T08:20:44.065Z,2.47
2019-03-20T08:23:12.451Z,3.50
2019-03-20T08:25:40.951Z,3.45
2019-03-20T08:28:09.313Z,3.58
2019-03-20T08:30:38.022Z,3.15
2019-03-20T08:33:06.413Z,2.10
2019-03-20T08:35:34.793Z,2.77
2019-03-20T08:38:03.254Z,2.70
2019-03-20T08:40:31.625Z,3.20
2019-03-20T08:43:00.002Z,2.37
2019-03-20T08:45:28.407Z,2.50
2019-03-20T08:47:56.766Z,2.60
2019-03-20T08:50:25.878Z,2.22
2019-03-20T08:52:54.303Z,2.20
2019-03-20T08:55:22.782Z,1.67
2019-03-20T08:57:51.144Z,1.87
2019-03-20T09:00:22.991Z,1.90
2019-03-20T09:02:51.412Z,1.72
2019-03-20T09:05:19.751Z,1.95
2019-03-20T09:07:48.085Z,1.37
2019-03-20T09:10:21.226Z,1.35
2019-03-20T09:12:49.904Z,1.45
2019-03-20T09:15:19.187Z,1.95
2019-03-20T09:17:47.566Z,1.60
2019-03-20T09:20:16.667Z,1.80
2019-03-20T09:22:45.066Z,2.05
2019-03-20T09:25:19.590Z,1.83
2019-03-20T09:27:48.021Z,2.00
2019-03-20T09:30:26.583Z,2.10
2019-03-20T09:32:55.032Z,2.27
2019-03-20T09:35:23.410Z,3.52
2019-03-20T09:37:52.784Z,3.02
2019-03-20T09:40:23.632Z,2.67
2019-03-20T09:42:52.330Z,3.00
2019-03-20T09:45:23.788Z,3.40
2019-03-20T09:47:52.096Z,2.62
2019-03-20T09:50:22.594Z,3.67
2019-03-20T09:52:51.034Z,2.87
2019-03-20T09:55:19.384Z,3.42
2019-03-20T09:57:47.748Z,3.93
2019-03-20T10:00:29.188Z,3.83
2019-03-20T10:02:57.533Z,3.37
2019-03-20T10:05:25.866Z,4.72
2019-03-20T10:07:54.246Z,4.12
2019-03-20T10:10:30.677Z,4.83
2019-03-20T10:12:59.025Z,4.80
2019-03-20T10:15:29.477Z,3.90
2019-03-20T10:17:57.869Z,3.52
2019-03-20T10:20:26.402Z,4.53
2019-03-20T10:22:55.482Z,3.92
2019-03-20T10:25:23.829Z,4.47
2019-03-20T10:27:52.315Z,4.15
2019-03-20T10:30:23.122Z,4.95
2019-03-20T10:32:51.518Z,4.45
2019-03-20T10:35:19.902Z,4.90
2019-03-20T10:37:49.559Z,4.92
2019-03-20T10:40:24.720Z,6.00
2019-03-20T10:42:53.107Z,5.58
2019-03-20T10:45:21.563Z,6.10
2019-03-20T10:47:52.725Z,5.47
2019-03-20T10:50:24.615Z,6.25
2019-03-20T10:55:20.617Z,6.00
2019-03-20T10:57:48.980Z,6.13
2019-03-20T11:00:27.508Z,5.83
2019-03-20T11:02:55.875Z,6.35
2019-03-20T11:05:24.281Z,7.03
2019-03-20T11:07:52.855Z,7.53
2019-03-20T11:10:25.933Z,7.10
2019-03-20T11:12:54.522Z,7.13
2019-03-20T11:15:23.493Z,6.40
2019-03-20T11:17:51.854Z,8.03
2019-03-20T11:20:23.787Z,7.35
2019-03-20T11:22:52.975Z,6.95
2019-03-20T11:25:26.311Z,6.90
2019-03-20T11:27:54.679Z,7.37
2019-03-20T11:30:27.699Z,7.60
2019-03-20T11:32:56.142Z,7.28
2019-03-20T11:35:24.522Z,6.85
2019-03-20T11:37:52.992Z,7.40
2019-03-20T11:40:28.641Z,7.73
2019-03-20T11:42:58.789Z,7.53
2019-03-20T11:45:27.153Z,7.23
2019-03-20T11:47:55.538Z,6.60
2019-03-20T11:50:35.614Z,6.93
2019-03-20T11:53:05.429Z,6.67
2019-03-20T11:55:33.817Z,6.83
2019-03-20T11:58:02.262Z,6.85
2019-03-20T12:00:30.941Z,6.75
2019-03-20T12:02:59.417Z,5.75
2019-03-20T12:05:27.819Z,6.05
2019-03-20T12:07:56.271Z,5.37
2019-03-20T12:10:29.063Z,5.45
2019-03-20T12:12:57.435Z,4.50
2019-03-20T12:15:25.830Z,4.95
2019-03-20T12:17:54.194Z,4.08
2019-03-20T12:20:23.482Z,4.55
2019-03-20T12:22:52.030Z,4.40
2019-03-20T12:25:33.262Z,4.17
2019-03-20T12:28:01.690Z,4.24
2019-03-20T12:30:37.179Z,4.00
2019-03-20T12:33:05.784Z,3.72
2019-03-20T12:35:39.049Z,3.42
2019-03-20T12:38:14.236Z,3.10
2019-03-20T12:40:37.488Z,3.55
2019-03-20T12:43:06.115Z,3.20
2019-03-20T12:45:37.736Z,3.33
2019-03-20T12:48:07.519Z,4.77
2019-03-20T12:50:35.980Z,3.30
2019-03-20T12:53:06.144Z,3.85
2019-03-20T12:55:34.552Z,3.33
2019-03-20T12:58:03.033Z,3.15
2019-03-20T13:00:31.403Z,3.07
2019-03-20T13:02:59.824Z,2.85
2019-03-20T13:05:29.089Z,3.35
2019-03-20T13:08:05.441Z,3.15
2019-03-20T13:10:28.579Z,2.73
2019-03-20T13:12:56.926Z,2.98
2019-03-20T13:15:27.317Z,2.80
2019-03-20T13:17:56.314Z,2.33
2019-03-20T13:20:24.719Z,2.83
2019-03-20T13:23:07.487Z,2.30
2019-03-20T13:25:35.859Z,2.30
2019-03-20T13:28:04.262Z,2.20
2019-03-20T13:30:41.299Z,2.30
2019-03-20T13:33:11.305Z,2.93
2019-03-20T13:35:39.705Z,2.87
2019-03-20T13:38:08.101Z,2.45
2019-03-20T13:40:36.489Z,2.20
2019-03-20T13:43:05.129Z,2.10
2019-03-20T13:45:33.495Z,2.00
2019-03-20T13:48:01.878Z,1.90
2019-03-20T13:50:30.237Z,2.15
2019-03-20T13:52:58.685Z,2.52
2019-03-20T13:55:27.125Z,2.80
2019-03-20T13:57:55.575Z,3.17
2019-03-20T14:00:28.494Z,2.77
2019-03-20T14:02:56.887Z,2.27
2019-03-20T14:05:27.000Z,2.35
2019-03-20T14:07:55.362Z,2.37
2019-03-20T14:10:27.665Z,2.67
2019-03-20T14:12:55.974Z,3.83
2019-03-20T14:15:24.390Z,2.87
2019-03-20T14:17:52.842Z,2.55
2019-03-20T14:20:26.693Z,3.33
2019-03-20T14:22:55.106Z,2.77
2019-03-20T14:25:23.538Z,2.85
2019-03-20T14:27:52.468Z,2.86
2019-03-20T14:30:31.809Z,3.05
2019-03-20T14:33:00.192Z,2.70
2019-03-20T14:35:28.582Z,2.95
2019-03-20T14:37:57.894Z,3.03
2019-03-20T14:40:37.009Z,2.67
2019-03-20T14:43:03.967Z,2.98
2019-03-20T14:45:32.379Z,3.25
2019-03-20T14:48:00.755Z,3.95
2019-03-20T14:50:31.279Z,3.35
2019-03-20T14:52:59.646Z,3.87
2019-03-20T14:55:28.033Z,3.33
2019-03-20T14:57:56.358Z,2.35
2019-03-20T15:00:31.112Z,3.12
2019-03-20T15:02:59.497Z,3.55
2019-03-20T15:05:27.901Z,4.35
2019-03-20T15:07:56.264Z,3.92
2019-03-20T15:10:28.343Z,3.33
2019-03-20T15:12:56.883Z,2.80
2019-03-20T15:15:45.940Z,2.98
2019-03-20T15:18:14.302Z,2.75
2019-03-20T15:20:42.664Z,3.53
2019-03-20T15:23:11.065Z,2.47
2019-03-20T15:25:39.428Z,3.12
2019-03-20T15:28:07.826Z,2.90
2019-03-20T15:30:36.206Z,2.60
2019-03-20T15:33:04.689Z,2.90
2019-03-20T15:35:33.113Z,2.87
2019-03-20T15:38:01.501Z,3.12
2019-03-20T15:40:30.713Z,3.30
2019-03-20T15:42:59.237Z,3.17
2019-03-20T15:45:27.537Z,3.98
2019-03-20T15:47:55.958Z,3.12
2019-03-20T15:50:28.083Z,3.22
2019-03-20T15:52:56.462Z,2.90
2019-03-20T15:55:41.980Z,2.35
2019-03-20T15:58:11.129Z,2.77
2019-03-20T16:00:39.521Z,2.85
2019-03-20T16:03:10.926Z,2.72
2019-03-20T16:05:39.374Z,2.87
2019-03-20T16:08:07.814Z,3.80
2019-03-20T16:10:36.148Z,2.80
2019-03-20T16:13:04.661Z,3.25
2019-03-20T16:15:32.999Z,3.43
2019-03-20T16:18:01.455Z,3.05
2019-03-20T16:20:30.088Z,3.20
2019-03-20T16:22:58.475Z,3.02
2019-03-20T16:25:26.869Z,2.85
2019-03-20T16:27:55.257Z,3.00
2019-03-20T16:30:27.941Z,2.80
2019-03-20T16:32:56.641Z,3.03
2019-03-20T16:35:25.049Z,2.80
2019-03-20T16:37:53.451Z,3.05
2019-03-20T16:40:26.365Z,3.77
2019-03-20T16:42:54.835Z,4.35
2019-03-20T16:45:31.483Z,5.70
2019-03-20T16:47:59.867Z,3.27
2019-03-20T16:50:28.265Z,3.27
2019-03-20T16:52:56.639Z,3.85
2019-03-20T16:55:24.998Z,3.20
2019-03-20T16:57:53.361Z,2.80
2019-03-20T17:00:45.532Z,2.67
2019-03-20T17:03:13.923Z,4.47
2019-03-20T17:05:42.313Z,3.75
2019-03-20T17:08:12.600Z,3.10
2019-03-20T17:10:43.049Z,3.92
2019-03-20T17:13:11.445Z,3.65
2019-03-20T17:15:43.865Z,3.58
2019-03-20T17:18:12.225Z,4.17
2019-03-20T17:20:40.584Z,4.15
2019-03-20T17:23:08.979Z,5.03
2019-03-20T17:25:37.409Z,3.92
2019-03-20T17:28:06.335Z,4.35
2019-03-20T17:30:40.485Z,4.86
2019-03-20T17:33:08.886Z,5.40
2019-03-20T17:35:37.345Z,5.07
2019-03-20T17:38:05.781Z,10.43
2019-03-20T17:40:34.165Z,9.35
2019-03-20T17:43:02.586Z,5.83
2019-03-20T17:45:30.958Z,6.33
2019-03-20T17:47:59.387Z,6.25
2019-03-20T17:50:35.454Z,6.50
2019-03-20T17:53:04.794Z,5.15
2019-03-20T17:55:33.266Z,5.53
2019-03-20T17:58:01.979Z,4.58
2019-03-20T18:00:33.059Z,4.55
2019-03-20T18:03:01.420Z,4.58
2019-03-20T18:05:29.855Z,4.90
2019-03-20T18:07:58.227Z,5.30
2019-03-20T18:10:26.662Z,4.92
2019-03-20T18:12:55.003Z,3.85
2019-03-20T18:15:23.356Z,4.95
2019-03-20T18:17:51.740Z,5.08
2019-03-20T18:20:20.685Z,4.55
2019-03-20T18:22:49.084Z,4.80
2019-03-20T18:25:17.470Z,4.90
2019-03-20T18:27:45.857Z,5.20
2019-03-20T18:30:16.692Z,5.47
2019-03-20T18:32:45.101Z,5.87
2019-03-20T18:35:13.910Z,5.05
2019-03-20T18:37:42.352Z,5.67
2019-03-20T18:40:15.736Z,5.28
2019-03-20T18:42:44.209Z,5.58
2019-03-20T18:45:17.837Z,5.45
2019-03-20T18:47:46.226Z,5.57
2019-03-20T18:50:16.666Z,5.25
2019-03-20T18:52:45.169Z,5.85
2019-03-20T18:55:17.414Z,6.00
2019-03-20T18:57:45.877Z,4.90
2019-03-20T19:00:17.527Z,5.58
2019-03-20T19:02:45.979Z,5.33
2019-03-20T19:05:23.683Z,5.10
2019-03-20T19:07:52.289Z,4.97
2019-03-20T19:10:20.777Z,5.20
2019-03-20T19:12:49.228Z,4.80
2019-03-20T19:15:17.592Z,5.50
2019-03-20T19:17:45.984Z,5.67
2019-03-20T19:20:15.169Z,5.33
2019-03-20T19:22:43.567Z,5.47
2019-03-20T19:25:18.550Z,4.75
2019-03-20T19:27:47.016Z,5.45
2019-03-20T19:30:23.171Z,5.42
2019-03-20T19:32:51.572Z,5.17
2019-03-20T19:35:19.933Z,6.15
2019-03-20T19:37:48.313Z,5.22
2019-03-20T19:40:20.414Z,6.80
2019-03-20T19:42:48.815Z,4.97
2019-03-20T19:45:18.813Z,5.33
2019-03-20T19:47:47.200Z,5.35
2019-03-20T19:50:20.688Z,6.25
2019-03-20T19:52:50.046Z,5.07
2019-03-20T19:55:18.866Z,5.90
2019-03-20T19:57:47.252Z,4.97
2019-03-20T20:00:25.912Z,5.67
2019-03-20T20:02:54.326Z,4.60
2019-03-20T20:05:22.707Z,4.85
2019-03-20T20:07:51.173Z,6.58
2019-03-20T20:10:20.218Z,5.87
2019-03-20T20:12:48.583Z,6.10
2019-03-20T20:15:20.228Z,7.05
2019-03-20T20:17:48.617Z,5.80
2019-03-20T20:20:19.267Z,5.72
2019-03-20T20:22:47.637Z,7.08
2019-03-20T20:25:16.129Z,7.28
2019-03-20T20:27:44.521Z,7.30
2019-03-20T20:30:17.511Z,6.00
2019-03-20T20:32:45.974Z,7.30
2019-03-20T20:35:15.278Z,7.10
2019-03-20T20:37:44.697Z,7.30
2019-03-20T20:40:15.690Z,5.42
2019-03-20T20:42:44.072Z,5.25
2019-03-20T20:45:12.611Z,5.35
2019-03-20T20:47:41.010Z,5.75
2019-03-20T20:50:14.108Z,7.00
2019-03-20T20:52:42.673Z,6.08
2019-03-20T20:55:16.586Z,7.28
2019-03-20T20:57:45.054Z,6.15
2019-03-20T21:00:16.061Z,6.08
2019-03-20T21:02:44.430Z,5.53
2019-03-20T21:05:12.824Z,6.50
2019-03-20T21:07:41.392Z,5.20
2019-03-20T21:10:14.602Z,5.28
2019-03-20T21:12:54.857Z,5.72
2019-03-20T21:15:30.596Z,5.53
2019-03-20T21:18:20.036Z,6.83
2019-03-20T21:20:48.934Z,5.22
2019-03-20T21:23:39.815Z,6.17
2019-03-20T21:26:25.593Z,4.55
2019-03-20T21:29:30.729Z,4.42
2019-03-20T21:32:07.974Z,5.67
2019-03-20T21:34:57.697Z,7.12
2019-03-20T21:37:32.189Z,5.42
2019-03-20T21:40:00.517Z,6.33
2019-03-20T21:42:51.640Z,6.05
2019-03-20T21:45:56.104Z,6.05
2019-03-20T21:48:24.510Z,4.78
2019-03-20T21:50:56.182Z,5.95
2019-03-20T21:53:44.350Z,4.77
2019-03-20T21:59:25.795Z,6.37
2019-03-20T22:02:12.302Z,6.37
2019-03-20T22:04:40.728Z,6.25
2019-03-20T22:07:12.350Z,6.93
2019-03-20T22:09:53.125Z,6.20
2019-03-20T22:12:49.892Z,5.50
2019-03-20T22:15:21.513Z,7.25
2019-03-20T22:18:14.035Z,6.17
2019-03-20T22:20:51.484Z,8.70
2019-03-20T22:23:23.145Z,6.47
2019-03-20T22:26:00.829Z,6.17
2019-03-20T22:29:02.851Z,6.03
2019-03-20T22:31:34.341Z,5.47
2019-03-20T22:34:25.626Z,6.73
2019-03-20T22:36:54.193Z,6.28
2019-03-20T22:39:57.229Z,7.33
2019-03-20T22:42:40.807Z,5.87
2019-03-20T22:45:21.152Z,7.03
2019-03-20T22:48:15.714Z,5.70
2019-03-20T22:50:59.368Z,6.57
2019-03-20T22:53:30.955Z,5.17
2019-03-20T22:56:11.474Z,5.40
2019-03-20T22:58:48.938Z,5.78
2019-03-20T23:01:26.241Z,5.47
2019-03-20T23:04:03.533Z,4.85
2019-03-20T23:06:31.985Z,5.10
2019-03-20T23:09:00.488Z,5.90
2019-03-20T23:11:28.889Z,6.20
2019-03-20T23:13:57.297Z,7.10
2019-03-20T23:16:25.722Z,5.40
2019-03-20T23:18:56.127Z,5.83
2019-03-20T23:21:24.295Z,5.78
2019-03-20T23:23:52.793Z,5.17
2019-03-20T23:26:21.225Z,6.17
2019-03-20T23:28:49.602Z,6.00
2019-03-20T23:31:18.087Z,5.37
2019-03-20T23:33:46.464Z,4.92
2019-03-20T23:36:14.871Z,5.33
2019-03-20T23:38:43.245Z,5.53
2019-03-20T23:41:11.665Z,5.70
2019-03-20T23:43:40.140Z,5.50
2019-03-20T23:46:08.508Z,6.60
2019-03-20T23:48:43.446Z,5.15
2019-03-20T23:51:20.504Z,4.33
2019-03-20T23:53:50.807Z,5.67
2019-03-20T23:56:19.248Z,5.73
